Time;durP1;ratioP1;P1;durP2;ratioP2;P2;SDS_P1;SDS_P2;PMS_P1;PMS_P2;Temp;Humidity;BMP_temperature;BMP_pressure;BME280_temperature;BME280_humidity;BME280_pressure;Samples;Min_cycle;Max_cycle;Signal;HPM_P1;HPM_P2
2021/10/14 00:00:57;;;;;;;6.95;3.67;;;;;;;2.55;85.27;98419.09;4977004;28;20029;-72
2021/10/14 00:03:22;;;;;;;6.63;3.50;;;;;;;2.59;85.00;98420.41;4995667;28;20031;-72
2021/10/14 00:05:48;;;;;;;7.57;3.45;;;;;;;2.49;85.47;98419.75;4969204;28;20023;-73
2021/10/14 00:08:13;;;;;;;6.15;3.75;;;;;;;2.52;85.55;98409.56;4975326;28;20140;-71
2021/10/14 00:10:38;;;;;;;7.45;4.05;;;;;;;2.44;85.81;98414.94;4965703;28;20031;-73
2021/10/14 00:13:04;;;;;;;5.55;3.55;;;;;;;2.53;85.25;98418.41;4996243;28;20113;-73
2021/10/14 00:15:30;;;;;;;6.55;3.80;;;;;;;2.57;85.49;98409.03;4968857;28;20034;-72
2021/10/14 00:17:57;;;;;;;6.28;4.07;;;;;;;2.60;85.12;98408.69;4972024;28;20045;-72
2021/10/14 00:20:23;;;;;;;6.18;3.85;;;;;;;2.54;85.21;98415.56;4982285;28;20027;-72
2021/10/14 00:22:48;;;;;;;6.05;2.80;;;;;;;2.45;85.67;98416.59;4979419;28;20031;-72
2021/10/14 00:25:13;;;;;;;8.40;3.72;;;;;;;2.40;85.83;98418.97;4977294;28;20038;-71
2021/10/14 00:27:39;;;;;;;5.78;3.72;;;;;;;2.38;85.59;98407.59;4977117;28;20054;-72
2021/10/14 00:30:05;;;;;;;6.03;3.58;;;;;;;2.39;85.63;98415.47;4977249;28;20742;-72
2021/10/14 00:32:31;;;;;;;6.65;3.78;;;;;;;2.40;85.72;98417.13;4996979;28;20096;-72
2021/10/14 00:34:56;;;;;;;6.05;4.10;;;;;;;2.37;85.52;98412.13;4983156;28;20026;-72
2021/10/14 00:37:21;;;;;;;7.05;3.78;;;;;;;2.34;85.76;98409.81;4976907;28;20114;-73
2021/10/14 00:39:47;;;;;;;6.90;4.18;;;;;;;2.34;85.55;98418.66;4969766;28;20034;-72
2021/10/14 00:42:12;;;;;;;10.35;4.90;;;;;;;2.33;85.68;98408.97;4990582;28;20034;-72
2021/10/14 00:44:48;;;;;;;7.60;4.35;;;;;;;2.34;85.84;98415.16;4975524;28;20089;-72
2021/10/14 00:47:22;;;;;;;9.88;4.22;;;;;;;2.26;86.00;98412.50;4978482;28;20049;-72
2021/10/14 00:49:48;;;;;;;8.93;4.13;;;;;;;2.27;86.05;98417.69;4975879;28;20159;-72
2021/10/14 00:52:14;;;;;;;7.88;4.35;;;;;;;2.28;86.42;98418.53;4978713;28;20109;-72
2021/10/14 00:54:39;;;;;;;6.50;4.03;;;;;;;2.30;86.03;98412.00;4994660;28;20113;-72
2021/10/14 00:57:05;;;;;;;9.98;4.45;;;;;;;2.36;85.73;98407.78;4981383;28;20113;-72
2021/10/14 00:59:30;;;;;;;6.97;3.78;;;;;;;2.28;86.05;98413.19;4967017;28;20019;-72
2021/10/14 01:01:56;;;;;;;7.38;4.32;;;;;;;2.17;86.02;98414.34;4983959;28;20045;-72
2021/10/14 01:04:22;;;;;;;10.75;4.30;;;;;;;2.05;86.66;98400.53;4984030;28;20506;-72
2021/10/14 01:06:47;;;;;;;8.13;4.03;;;;;;;2.15;86.56;98398.53;4983457;28;20026;-72
2021/10/14 01:09:12;;;;;;;6.28;3.60;;;;;;;2.19;86.29;98404.34;4987430;28;20084;-72
2021/10/14 01:11:39;;;;;;;7.25;4.80;;;;;;;2.18;86.43;98408.84;5001471;28;20057;-72
2021/10/14 01:14:04;;;;;;;6.68;3.72;;;;;;;2.21;86.08;98419.19;5001599;28;20030;-71
2021/10/14 01:16:29;;;;;;;5.05;3.10;;;;;;;2.12;86.27;98414.88;4986272;28;20137;-72
2021/10/14 01:18:55;;;;;;;5.28;2.83;;;;;;;2.01;86.93;98413.41;4972087;28;20054;-73
2021/10/14 01:21:20;;;;;;;7.18;4.38;;;;;;;2.02;86.72;98409.72;4970894;28;20038;-72
2021/10/14 01:23:46;;;;;;;7.35;3.80;;;;;;;2.13;86.73;98405.03;4971331;28;20065;-72
2021/10/14 01:26:11;;;;;;;6.28;3.97;;;;;;;2.17;86.44;98401.00;4985876;28;20026;-72
2021/10/14 01:28:36;;;;;;;6.68;3.75;;;;;;;2.20;86.10;98406.00;4978290;28;20033;-72
2021/10/14 01:31:02;;;;;;;8.15;3.88;;;;;;;2.20;86.40;98390.81;4980206;28;20041;-72
2021/10/14 01:33:27;;;;;;;7.00;3.83;;;;;;;2.21;85.75;98392.47;4972416;28;20030;-72
2021/10/14 01:35:53;;;;;;;7.55;3.80;;;;;;;2.18;86.32;98373.28;4972214;28;20038;-72
2021/10/14 01:38:18;;;;;;;10.25;3.97;;;;;;;2.21;86.04;98375.59;4984528;28;20037;-72
2021/10/14 01:40:44;;;;;;;4.15;2.67;;;;;;;2.13;86.14;98375.66;4981401;28;20503;-73
2021/10/14 01:43:14;;;;;;;7.40;3.95;;;;;;;2.08;86.28;98374.34;4983238;28;20026;-72
2021/10/14 01:45:39;;;;;;;8.00;4.20;;;;;;;2.08;86.27;98374.34;4980606;28;20023;-71
2021/10/14 01:48:05;;;;;;;8.27;3.95;;;;;;;2.09;86.19;98377.81;4967172;28;20026;-73
2021/10/14 01:50:31;;;;;;;8.38;3.95;;;;;;;2.02;86.77;98376.81;4994588;28;20030;-73
2021/10/14 01:52:56;;;;;;;7.20;3.50;;;;;;;2.02;86.78;98374.16;4981174;28;20498;-71
2021/10/14 01:55:21;;;;;;;6.68;3.63;;;;;;;1.98;86.59;98380.88;4983166;28;20700;-72
2021/10/14 01:57:47;;;;;;;4.28;2.35;;;;;;;1.98;86.43;98376.34;4981760;28;20543;-72
2021/10/14 02:00:13;;;;;;;7.03;3.95;;;;;;;1.95;86.57;98369.50;4981384;28;20447;-73
2021/10/14 02:02:38;;;;;;;7.85;3.92;;;;;;;1.91;86.70;98375.38;4963975;28;20102;-72
2021/10/14 02:05:04;;;;;;;6.10;3.55;;;;;;;1.83;86.83;98376.22;4985294;28;20038;-72
2021/10/14 02:07:30;;;;;;;6.38;3.20;;;;;;;1.80;86.90;98379.22;4981931;28;20041;-72
2021/10/14 02:09:55;;;;;;;5.70;3.00;;;;;;;1.73;86.89;98376.41;4979451;28;20027;-73
2021/10/14 02:12:20;;;;;;;7.05;3.55;;;;;;;1.74;86.72;98380.78;4964196;28;20477;-73
2021/10/14 02:14:46;;;;;;;7.38;3.60;;;;;;;1.69;87.15;98373.25;4981379;28;20688;-72
2021/10/14 02:17:11;;;;;;;5.25;2.50;;;;;;;1.69;86.95;98378.59;4984960;28;20503;-72
2021/10/14 02:19:36;;;;;;;5.80;3.15;;;;;;;1.68;86.75;98368.91;4986134;28;20015;-72
2021/10/14 02:22:02;;;;;;;5.75;3.15;;;;;;;1.69;87.03;98372.41;4985620;28;20026;-73
2021/10/14 02:24:27;;;;;;;4.63;2.83;;;;;;;1.64;87.04;98377.44;4975135;28;20129;-72
2021/10/14 02:26:53;;;;;;;5.25;3.03;;;;;;;1.62;86.83;98379.44;4984535;28;20034;-71
2021/10/14 02:29:18;;;;;;;5.68;3.05;;;;;;;1.65;86.89;98373.75;4976468;28;20030;-71
2021/10/14 02:31:43;;;;;;;8.18;3.60;;;;;;;1.59;87.21;98371.78;4976253;28;20114;-72
2021/10/14 02:34:09;;;;;;;4.38;2.65;;;;;;;1.59;86.99;98374.44;4985535;28;20041;-72
2021/10/14 02:36:34;;;;;;;5.70;3.08;;;;;;;1.64;86.63;98380.09;4966848;28;20031;-72
2021/10/14 02:39:00;;;;;;;5.13;2.72;;;;;;;1.56;86.55;98373.75;4974192;28;20097;-71
2021/10/14 02:41:25;;;;;;;4.72;2.70;;;;;;;1.60;86.77;98379.63;4974696;28;20477;-71
2021/10/14 02:43:51;;;;;;;8.50;3.20;;;;;;;1.67;86.14;98374.44;4975254;28;20113;-72
2021/10/14 02:46:16;;;;;;;5.65;2.70;;;;;;;1.62;86.22;98374.94;4983329;28;20041;-72
2021/10/14 02:48:42;;;;;;;7.68;3.42;;;;;;;1.50;86.67;98370.94;4979268;28;20400;-71
2021/10/14 02:51:07;;;;;;;6.07;2.75;;;;;;;1.44;87.15;98375.13;4984348;28;20038;-71
2021/10/14 02:53:33;;;;;;;5.68;3.15;;;;;;;1.46;87.15;98372.28;4975731;28;20113;-72
2021/10/14 02:55:58;;;;;;;7.70;3.03;;;;;;;1.53;87.05;98378.63;4965172;28;20122;-71
2021/10/14 02:58:23;;;;;;;7.30;3.10;;;;;;;1.55;87.14;98376.63;4971481;28;20065;-72
2021/10/14 03:00:49;;;;;;;4.80;2.55;;;;;;;1.68;86.75;98376.09;4969781;28;20058;-72
2021/10/14 03:03:14;;;;;;;5.35;3.20;;;;;;;1.77;86.44;98380.41;4984837;28;20030;-71
2021/10/14 03:05:39;;;;;;;6.78;3.00;;;;;;;1.81;86.45;98373.72;4983932;28;20068;-71
2021/10/14 03:08:05;;;;;;;7.07;3.70;;;;;;;1.81;86.14;98376.38;4984188;28;20058;-72
2021/10/14 03:10:30;;;;;;;6.55;2.97;;;;;;;1.87;86.47;98379.38;4983533;28;20113;-72
2021/10/14 03:12:55;;;;;;;7.65;3.13;;;;;;;1.86;85.94;98388.41;4975151;28;20058;-72
2021/10/14 03:15:21;;;;;;;6.18;2.60;;;;;;;1.82;86.19;98385.25;4973896;28;20048;-72
2021/10/14 03:17:46;;;;;;;7.43;3.78;;;;;;;1.83;85.89;98386.91;4999690;28;20041;-71
2021/10/14 03:20:12;;;;;;;6.00;3.38;;;;;;;1.72;86.42;98389.94;4974207;28;20042;-71
2021/10/14 03:22:37;;;;;;;7.18;3.47;;;;;;;1.75;86.47;98382.44;4985485;28;20022;-72
2021/10/14 03:25:03;;;;;;;7.40;3.15;;;;;;;1.85;86.34;98382.25;4984037;28;20026;-72
2021/10/14 03:27:28;;;;;;;7.75;2.75;;;;;;;1.94;85.83;98373.19;4982980;28;20057;-72
2021/10/14 03:29:54;;;;;;;7.03;3.42;;;;;;;1.99;85.81;98377.19;4969531;28;20455;-71
2021/10/14 03:32:19;;;;;;;5.57;3.03;;;;;;;1.88;86.03;98384.56;4983393;28;20042;-71
2021/10/14 03:34:44;;;;;;;6.32;3.28;;;;;;;1.94;85.84;98375.03;4978815;28;20038;-72
2021/10/14 03:37:10;;;;;;;6.53;3.75;;;;;;;1.87;86.31;98374.88;4982742;28;20029;-70
2021/10/14 03:39:35;;;;;;;3.58;2.03;;;;;;;1.83;86.26;98373.56;4983379;28;20121;-71
2021/10/14 03:42:01;;;;;;;7.90;3.75;;;;;;;1.75;86.69;98366.41;4972229;28;20054;-72
2021/10/14 03:44:26;;;;;;;7.50;3.70;;;;;;;1.71;86.80;98373.09;4973615;28;20034;-70
2021/10/14 03:46:51;;;;;;;5.07;2.92;;;;;;;1.68;86.59;98360.91;4984807;28;20523;-71
2021/10/14 03:49:17;;;;;;;4.13;2.10;;;;;;;1.67;87.01;98369.09;4998002;28;20092;-71
2021/10/14 03:51:42;;;;;;;5.90;3.35;;;;;;;1.71;86.68;98374.91;4981824;28;20125;-71
2021/10/14 03:54:09;;;;;;;3.22;2.17;;;;;;;1.65;86.97;98379.94;4972513;28;20117;-72
2021/10/14 03:56:34;;;;;;;5.03;2.42;;;;;;;1.68;87.27;98394.78;4975818;28;20411;-72
2021/10/14 03:58:59;;;;;;;6.32;3.28;;;;;;;1.69;87.32;98386.59;4981374;28;20041;-72
2021/10/14 04:01:25;;;;;;;8.85;3.33;;;;;;;1.68;87.11;98402.78;4966571;28;20042;-72
2021/10/14 04:03:50;;;;;;;5.10;2.95;;;;;;;1.65;87.20;98392.44;4965604;28;20118;-71
2021/10/14 04:06:15;;;;;;;6.25;2.75;;;;;;;1.60;87.36;98402.78;4996755;28;20035;-72
2021/10/14 04:08:41;;;;;;;6.03;3.15;;;;;;;1.55;87.65;98395.31;4979753;28;20026;-72
2021/10/14 04:11:06;;;;;;;2.28;1.60;;;;;;;1.52;87.39;98401.78;4983629;28;20033;-71
2021/10/14 04:13:31;;;;;;;12.15;5.45;;;;;;;1.59;87.27;98393.97;4987810;28;20041;-72
2021/10/14 04:15:57;;;;;;;11.00;3.90;;;;;;;1.62;87.32;98406.16;4984030;28;20026;-70
2021/10/14 04:18:22;;;;;;;4.35;2.53;;;;;;;1.65;86.88;98411.13;4988194;28;20026;-71
2021/10/14 04:20:47;;;;;;;10.05;2.75;;;;;;;1.63;87.10;98405.97;4988251;28;20030;-72
2021/10/14 04:23:15;;;;;;;4.82;2.47;;;;;;;1.61;87.12;98402.63;4987251;28;20073;-71
2021/10/14 04:25:40;;;;;;;5.38;2.95;;;;;;;1.59;87.15;98407.31;4986856;28;20030;-73
2021/10/14 04:28:06;;;;;;;5.00;2.55;;;;;;;1.63;87.40;98411.31;4984216;28;20042;-72
2021/10/14 04:30:33;;;;;;;5.93;4.28;;;;;;;1.69;87.21;98407.13;4987278;28;20026;-71
2021/10/14 04:32:58;;;;;;;7.38;3.35;;;;;;;1.74;87.20;98406.63;4986044;28;20798;-72
2021/10/14 04:35:23;;;;;;;8.45;2.72;;;;;;;1.78;86.84;98405.28;4983633;28;20034;-72
2021/10/14 04:37:49;;;;;;;5.72;3.20;;;;;;;1.79;86.52;98402.44;4967613;28;20080;-71
2021/10/14 04:40:14;;;;;;;7.72;3.83;;;;;;;1.77;86.67;98407.09;4985276;28;20121;-72
2021/10/14 04:42:39;;;;;;;4.95;3.30;;;;;;;1.77;87.02;98408.97;4987679;28;20030;-72
2021/10/14 04:45:05;;;;;;;7.15;4.20;;;;;;;1.79;87.11;98401.59;4985541;28;20042;-71
2021/10/14 04:47:31;;;;;;;6.95;3.92;;;;;;;1.84;86.92;98409.13;4988111;28;20034;-71
2021/10/14 04:49:56;;;;;;;3.63;2.22;;;;;;;1.85;86.71;98403.63;4983357;28;20057;-72
2021/10/14 04:52:21;;;;;;;7.60;3.38;;;;;;;1.88;86.92;98403.25;4986698;28;20498;-71
2021/10/14 04:54:47;;;;;;;8.52;4.20;;;;;;;1.84;86.76;98396.59;4974416;28;20045;-71
2021/10/14 04:57:12;;;;;;;7.03;2.95;;;;;;;1.77;86.82;98404.44;4986838;28;20038;-71
2021/10/14 04:59:38;;;;;;;6.55;2.67;;;;;;;1.73;86.76;98403.09;4983528;28;20049;-71
2021/10/14 05:02:03;;;;;;;6.85;3.47;;;;;;;1.75;86.75;98403.78;5000322;28;20537;-72
2021/10/14 05:04:29;;;;;;;3.58;2.13;;;;;;;1.74;86.75;98407.47;4985599;28;20037;-72
2021/10/14 05:06:54;;;;;;;4.93;2.80;;;;;;;1.77;87.02;98403.63;4984349;28;20029;-71
2021/10/14 05:09:19;;;;;;;5.47;2.92;;;;;;;1.79;87.09;98410.47;4978717;28;20046;-72
2021/10/14 05:11:45;;;;;;;7.22;2.85;;;;;;;1.79;86.96;98405.13;5010329;23;20523;-75
2021/10/14 05:14:10;;;;;;;7.45;4.18;;;;;;;1.83;86.74;98402.94;4981513;28;20100;-73
2021/10/14 05:16:35;;;;;;;3.80;3.38;;;;;;;1.78;86.76;98406.13;4970357;28;20035;-75
2021/10/14 05:19:01;;;;;;;10.00;4.13;;;;;;;1.79;87.15;98399.78;4977433;28;20023;-74
2021/10/14 05:21:26;;;;;;;10.35;5.22;;;;;;;1.81;86.96;98408.44;4950329;28;20023;-73
2021/10/14 05:23:59;;;;;;;10.57;5.38;;;;;;;1.83;86.91;98397.59;4981834;28;20022;-73
2021/10/14 05:26:28;;;;;;;9.40;4.32;;;;;;;1.85;86.93;98400.09;4976810;28;20061;-72
2021/10/14 05:28:56;;;;;;;9.05;5.18;;;;;;;1.86;87.16;98410.63;4977927;28;20404;-74
2021/10/14 05:31:21;;;;;;;6.15;3.63;;;;;;;1.86;87.08;98404.44;4973713;28;20038;-74
2021/10/14 05:33:47;;;;;;;7.50;3.97;;;;;;;1.87;87.06;98406.09;4973130;28;20030;-75
2021/10/14 05:36:12;;;;;;;8.35;4.07;;;;;;;1.85;86.91;98400.09;4978350;28;20035;-72
2021/10/14 05:38:38;;;;;;;6.78;3.05;;;;;;;1.84;87.06;98403.78;4961908;28;20066;-74
2021/10/14 05:41:03;;;;;;;8.90;3.58;;;;;;;1.81;86.80;98396.94;4965672;28;20037;-74
2021/10/14 05:43:28;;;;;;;7.72;4.03;;;;;;;1.81;87.11;98386.25;4975627;28;20031;-73
2021/10/14 05:45:54;;;;;;;5.13;3.95;;;;;;;1.77;87.32;98385.75;4957637;28;20031;-74
2021/10/14 05:48:21;;;;;;;6.43;3.50;;;;;;;1.78;86.78;98399.94;4961253;28;20057;-73
2021/10/14 05:50:47;;;;;;;7.97;4.18;;;;;;;1.72;87.14;98397.94;4962961;28;20026;-73
2021/10/14 05:53:12;;;;;;;4.43;2.10;;;;;;;1.68;87.29;98400.13;4963734;28;20069;-74
2021/10/14 05:55:37;;;;;;;8.75;5.70;;;;;;;1.64;87.13;98394.28;4963080;28;20042;-73
2021/10/14 05:58:03;;;;;;;10.68;4.80;;;;;;;1.64;87.42;98399.63;4975857;28;20058;-74
2021/10/14 06:00:28;;;;;;;2.15;1.48;;;;;;;1.65;87.34;98395.09;4974436;28;20347;-75
2021/10/14 06:02:54;;;;;;;6.93;4.43;;;;;;;1.63;87.00;98392.63;4959701;28;20034;-75
2021/10/14 06:05:19;;;;;;;6.60;3.63;;;;;;;1.65;87.30;98387.94;4960816;28;20098;-75
2021/10/14 06:07:45;;;;;;;7.00;3.67;;;;;;;1.66;87.18;98388.78;4996280;28;20190;-73
2021/10/14 06:10:10;;;;;;;12.02;7.25;;;;;;;1.72;87.44;98393.44;4979627;28;20039;-74
2021/10/14 06:12:37;;;;;;;6.68;4.10;;;;;;;1.76;87.23;98389.44;4946755;28;20023;-74
2021/10/14 06:15:04;;;;;;;8.45;3.53;;;;;;;1.80;87.29;98396.09;4955323;28;20027;-74
2021/10/14 06:17:29;;;;;;;11.38;5.35;;;;;;;1.79;87.11;98401.59;4965775;28;20041;-74
2021/10/14 06:19:54;;;;;;;9.23;5.20;;;;;;;1.81;87.16;98408.44;4967800;28;20047;-74
2021/10/14 06:22:20;;;;;;;8.43;3.88;;;;;;;1.84;86.66;98411.78;4967856;28;20033;-73
2021/10/14 06:24:45;;;;;;;9.32;4.65;;;;;;;1.91;87.04;98399.41;4962776;28;20109;-74
2021/10/14 06:27:10;;;;;;;5.38;2.97;;;;;;;1.95;86.95;98403.41;4967184;28;20061;-74
2021/10/14 06:29:36;;;;;;;5.55;2.58;;;;;;;2.02;86.90;98404.38;4956702;28;20511;-74
2021/10/14 06:32:01;;;;;;;7.47;3.72;;;;;;;2.05;86.77;98396.03;4956371;28;20039;-73
2021/10/14 06:34:26;;;;;;;5.95;3.30;;;;;;;2.11;86.58;98397.19;4951691;28;20038;-73
2021/10/14 06:36:52;;;;;;;5.43;2.70;;;;;;;2.16;86.64;98400.19;4956601;28;20027;-74
2021/10/14 06:39:17;;;;;;;13.20;4.82;;;;;;;2.23;86.30;98396.81;4970873;28;20500;-73
2021/10/14 06:41:43;;;;;;;7.45;3.45;;;;;;;2.32;86.17;98396.59;4961445;28;20077;-74
2021/10/14 06:44:09;;;;;;;9.70;5.28;;;;;;;2.42;86.23;98390.22;4962089;28;20047;-73
2021/10/14 06:46:38;;;;;;;7.00;3.13;;;;;;;2.48;85.49;98394.88;4960678;28;20057;-74
2021/10/14 06:49:03;;;;;;;6.18;3.20;;;;;;;2.55;85.57;98395.00;4962453;28;20848;-73
2021/10/14 06:51:29;;;;;;;10.88;3.80;;;;;;;2.65;85.28;98395.63;4964608;28;20057;-74
2021/10/14 06:53:54;;;;;;;6.28;2.95;;;;;;;2.73;85.12;98394.75;4967584;28;20022;-75
2021/10/14 06:56:20;;;;;;;9.27;3.85;;;;;;;2.86;84.97;98394.16;4968212;28;20492;-74
2021/10/14 06:58:45;;;;;;;7.30;3.20;;;;;;;2.96;84.66;98392.13;4967703;28;20725;-73
2021/10/14 07:01:12;;;;;;;8.32;3.28;;;;;;;3.11;84.64;98397.53;4963822;28;20032;-73
2021/10/14 07:03:40;;;;;;;6.45;3.15;;;;;;;3.23;84.11;98400.63;4969575;28;20049;-73
2021/10/14 07:06:05;;;;;;;9.93;3.63;;;;;;;3.36;83.84;98401.84;4973667;28;20042;-72
2021/10/14 07:08:30;;;;;;;4.28;2.38;;;;;;;3.46;83.54;98405.09;4966907;28;20121;-74
2021/10/14 07:10:56;;;;;;;4.97;3.38;;;;;;;3.57;83.19;98403.84;4960150;28;20093;-74
2021/10/14 07:13:23;;;;;;;7.35;3.67;;;;;;;3.72;82.80;98416.44;4955243;28;20038;-73
2021/10/14 07:15:48;;;;;;;8.15;3.92;;;;;;;3.75;82.55;98408.88;4969729;28;20042;-74
2021/10/14 07:18:14;;;;;;;5.85;2.97;;;;;;;3.86;81.97;98406.75;4967692;28;20043;-74
2021/10/14 07:20:39;;;;;;;7.47;3.40;;;;;;;3.99;81.78;98406.97;4961253;28;20057;-74
2021/10/14 07:23:13;;;;;;;8.63;2.50;;;;;;;4.03;81.21;98408.25;4964267;28;20107;-75
2021/10/14 07:25:40;;;;;;;8.48;4.13;;;;;;;4.15;81.21;98414.00;4968690;28;20031;-74
2021/10/14 07:28:06;;;;;;;6.40;3.22;;;;;;;4.31;80.91;98406.78;4964488;28;20027;-75
2021/10/14 07:30:32;;;;;;;6.85;3.65;;;;;;;4.42;79.76;98413.50;4959123;28;20030;-74
2021/10/14 07:33:03;;;;;;;8.30;3.67;;;;;;;4.50;80.12;98415.28;4970282;28;20042;-73
2021/10/14 07:35:35;;;;;;;6.47;3.22;;;;;;;4.59;80.19;98408.78;4960957;28;20085;-75
2021/10/14 07:38:03;;;;;;;4.65;2.65;;;;;;;4.65;80.42;98409.91;4959779;28;20027;-75
2021/10/14 07:40:29;;;;;;;5.97;3.30;;;;;;;4.76;79.89;98412.06;4953157;28;20800;-74
2021/10/14 07:42:55;;;;;;;5.95;2.78;;;;;;;4.87;79.40;98416.13;4969655;28;20070;-74
2021/10/14 07:45:20;;;;;;;2.30;1.02;;;;;;;5.14;78.72;98410.22;4965069;28;20062;-74
2021/10/14 07:47:45;;;;;;;7.68;3.15;;;;;;;5.37;78.29;98407.34;4970717;28;20023;-74
2021/10/14 07:50:12;;;;;;;5.65;3.20;;;;;;;5.51;78.05;98407.44;4947057;28;20027;-74
2021/10/14 07:52:38;;;;;;;5.43;2.47;;;;;;;5.65;77.29;98417.31;4954380;28;20038;-73
2021/10/14 07:55:03;;;;;;;5.85;3.13;;;;;;;5.83;76.88;98414.13;4955702;28;20031;-73
2021/10/14 07:57:29;;;;;;;7.50;2.80;;;;;;;5.96;77.06;98417.94;4959333;28;20041;-73
2021/10/14 07:59:54;;;;;;;6.90;3.67;;;;;;;6.20;77.52;98421.22;4966616;28;20027;-74
2021/10/14 08:02:19;;;;;;;6.68;3.30;;;;;;;6.50;76.32;98416.41;4954987;28;20023;-74
2021/10/14 08:04:47;;;;;;;5.47;2.70;;;;;;;6.72;74.75;98419.03;4949736;28;20034;-74
2021/10/14 08:07:12;;;;;;;7.22;2.47;;;;;;;6.94;73.76;98424.28;4964470;28;20034;-75
2021/10/14 08:09:38;;;;;;;4.45;2.70;;;;;;;7.13;73.83;98419.97;4960673;28;20026;-74
2021/10/14 08:12:03;;;;;;;5.65;3.00;;;;;;;7.20;73.70;98417.28;4958367;28;20038;-74
2021/10/14 08:14:29;;;;;;;7.03;3.47;;;;;;;7.31;73.90;98418.56;4955857;28;20042;-74
2021/10/14 08:16:54;;;;;;;7.30;2.97;;;;;;;7.42;73.12;98417.94;4954375;28;20035;-74
2021/10/14 08:19:20;;;;;;;6.50;3.47;;;;;;;7.40;72.80;98425.41;4963951;28;20023;-75
2021/10/14 08:21:45;;;;;;;8.55;3.60;;;;;;;7.48;73.53;98421.66;4964289;28;20054;-74
2021/10/14 08:24:10;;;;;;;6.72;3.15;;;;;;;7.53;73.58;98407.59;4962832;28;20121;-73
2021/10/14 08:26:36;;;;;;;6.05;3.00;;;;;;;7.66;73.96;98409.44;4958152;28;20031;-74
2021/10/14 08:29:01;;;;;;;5.65;2.97;;;;;;;7.83;73.35;98406.34;4953968;28;20042;-74
2021/10/14 08:31:27;;;;;;;6.15;2.83;;;;;;;7.89;72.70;98409.03;4959474;28;20026;-74
2021/10/14 08:33:52;;;;;;;4.93;2.95;;;;;;;8.10;71.72;98409.81;4952221;28;20033;-74
2021/10/14 08:36:18;;;;;;;5.15;3.00;;;;;;;8.27;71.25;98412.09;4957930;28;20030;-74
2021/10/14 08:38:44;;;;;;;6.22;3.20;;;;;;;8.32;70.76;98405.03;4949536;28;20046;-74
2021/10/14 08:41:09;;;;;;;5.03;2.53;;;;;;;8.60;70.02;98413.88;4964651;28;20030;-74
2021/10/14 08:43:36;;;;;;;4.50;2.90;;;;;;;8.74;68.43;98411.13;4965838;28;20043;-75
2021/10/14 08:46:02;;;;;;;9.02;2.55;;;;;;;8.83;68.68;98415.25;4963736;28;20027;-75
2021/10/14 08:48:29;;;;;;;6.53;2.60;;;;;;;8.80;68.51;98419.22;4962799;28;20030;-72
2021/10/14 08:50:55;;;;;;;6.90;2.85;;;;;;;8.82;68.53;98416.28;4960060;28;20039;-75
2021/10/14 08:53:20;;;;;;;7.20;3.20;;;;;;;8.97;68.67;98421.41;4951021;28;20089;-73
2021/10/14 08:55:45;;;;;;;5.15;2.80;;;;;;;8.89;68.29;98422.50;4954786;28;20027;-74
2021/10/14 08:58:12;;;;;;;7.05;2.63;;;;;;;8.94;68.66;98422.69;4957177;28;20747;-73
2021/10/14 09:00:40;;;;;;;5.60;3.58;;;;;;;9.03;69.18;98415.13;4958045;28;20027;-74
2021/10/14 09:03:52;;;;;;;5.72;2.85;;;;;;;9.18;67.77;98414.84;4972656;28;20078;-74
2021/10/14 09:06:17;;;;;;;;;;;;;;;9.29;67.13;98420.63;4967401;28;20252;-73
2021/10/14 09:08:44;;;;;;;6.78;3.13;;;;;;;9.37;68.19;98410.34;4961426;28;20542;-74
2021/10/14 09:11:16;;;;;;;5.80;3.10;;;;;;;9.63;67.23;98416.63;4969394;28;20038;-74
2021/10/14 09:13:47;;;;;;;6.90;3.03;;;;;;;9.76;66.67;98404.88;4974723;28;20089;-75
2021/10/14 09:16:20;;;;;;;7.30;3.08;;;;;;;9.99;65.92;98399.91;4961443;28;20413;-74
2021/10/14 09:18:46;;;;;;;6.18;3.05;;;;;;;10.37;66.24;98398.06;4960977;28;20030;-75
2021/10/14 09:21:32;;;;;;;5.47;2.60;;;;;;;10.66;63.23;98395.69;4962219;28;20178;-74
2021/10/14 09:24:00;;;;;;;4.63;2.63;;;;;;;10.88;63.65;98393.28;4967518;28;20043;-74
2021/10/14 09:26:33;;;;;;;5.38;2.58;;;;;;;11.21;62.64;98391.19;4980578;28;20031;-74
2021/10/14 09:29:08;;;;;;;5.68;2.58;;;;;;;11.76;61.46;98388.47;4960839;28;20038;-74
2021/10/14 09:31:49;;;;;;;4.90;2.10;;;;;;;11.44;59.58;98387.72;4959807;28;20071;-73
2021/10/14 09:34:23;;;;;;;4.50;2.42;;;;;;;11.29;60.62;98385.44;4955211;28;20059;-75
2021/10/14 09:36:48;;;;;;;4.63;2.00;;;;;;;11.89;57.90;98390.13;4963970;28;20074;-76
2021/10/14 09:39:14;;;;;;;3.65;1.40;;;;;;;12.09;57.41;98384.41;4965280;28;20031;-75
2021/10/14 09:41:41;;;;;;;6.55;1.50;;;;;;;11.80;57.69;98379.63;4970732;28;20110;-74
2021/10/14 09:44:13;;;;;;;3.28;1.23;;;;;;;12.26;56.76;98386.34;4960477;28;20033;-76
2021/10/14 09:46:39;;;;;;;;;;;;;;;12.72;56.23;98376.47;4956559;28;20034;-76
2021/10/14 09:49:06;;;;;;;3.88;1.30;;;;;;;12.24;56.34;98370.34;4981443;28;19925;-75
2021/10/14 09:51:32;;;;;;;5.70;1.67;;;;;;;12.88;54.93;98379.50;4951506;28;20387;-74
2021/10/14 09:53:59;;;;;;;2.88;1.25;;;;;;;13.76;53.17;98372.06;4966766;28;20031;-75
2021/10/14 09:56:26;;;;;;;2.50;1.10;;;;;;;14.29;52.51;98366.28;4956599;28;20114;-75
2021/10/14 09:58:52;;;;;;;4.95;1.08;;;;;;;14.33;51.52;98364.69;4942837;28;20038;-75
2021/10/14 10:01:18;;;;;;;3.55;0.98;;;;;;;13.63;51.77;98365.03;4964571;28;20031;-75
2021/10/14 10:03:43;;;;;;;3.67;1.35;;;;;;;14.43;51.40;98364.84;4946188;28;20038;-75
2021/10/14 10:06:12;;;;;;;3.58;1.00;;;;;;;14.43;49.42;98367.56;4967132;28;20112;-75
2021/10/14 10:08:41;;;;;;;3.92;1.10;;;;;;;14.67;49.15;98367.28;4949554;28;20030;-75
2021/10/14 10:11:10;;;;;;;3.60;1.00;;;;;;;15.20;48.45;98366.81;4979538;28;20066;-75
2021/10/14 10:13:39;;;;;;;1.92;1.00;;;;;;;14.64;47.66;98365.09;4966748;28;20031;-75
2021/10/14 10:16:31;;;;;;;2.72;1.00;;;;;;;15.05;48.70;98364.75;4968511;28;20579;-73
2021/10/14 10:18:58;;;;;;;;;;;;;;;15.15;48.35;98364.03;4968447;28;20540;-74
2021/10/14 10:21:29;;;;;;;1.45;0.90;;;;;;;16.20;44.62;98369.25;4972344;28;20422;-74
2021/10/14 10:23:55;;;;;;;;;;;;;;;16.60;45.84;98368.88;4970743;28;20039;-74
2021/10/14 10:26:35;;;;;;;3.65;1.05;;;;;;;15.26;45.80;98364.94;4961857;28;19926;-73
2021/10/14 10:29:21;;;;;;;3.05;1.00;;;;;;;15.29;47.84;98371.81;4955562;28;20028;-74
2021/10/14 10:31:49;;;;;;;3.53;1.42;;;;;;;15.63;48.22;98368.00;4958396;28;20042;-73
2021/10/14 10:34:37;;;;;;;2.15;1.00;;;;;;;14.61;49.52;98371.06;4961638;28;20511;-73
2021/10/14 10:37:16;;;;;;;3.65;1.10;;;;;;;14.97;48.18;98364.38;4956412;28;20076;-73
2021/10/14 10:39:54;;;;;;;3.15;1.20;;;;;;;15.10;49.22;98366.69;4963197;28;20026;-73
2021/10/14 10:42:35;;;;;;;4.03;1.45;;;;;;;15.61;47.31;98373.72;4980086;28;20046;-74
2021/10/14 10:45:21;;;;;;;;;;;;;;;15.63;48.86;98368.84;4958271;28;20089;-74
2021/10/14 10:47:52;;;;;;;2.97;1.10;;;;;;;15.59;46.65;98368.50;4954613;28;19918;-74
2021/10/14 10:50:23;;;;;;;3.78;1.20;;;;;;;15.81;46.69;98364.06;4958149;28;20035;-74
2021/10/14 10:53:01;;;;;;;4.47;1.25;;;;;;;15.46;46.69;98358.03;4961337;28;20034;-74
2021/10/14 10:55:26;;;;;;;3.38;1.35;;;;;;;15.19;47.95;98359.69;4972612;28;20604;-74
2021/10/14 10:57:53;;;;;;;3.72;1.08;;;;;;;15.50;46.70;98363.78;4979386;28;20530;-75
2021/10/14 11:00:20;;;;;;;3.95;1.20;;;;;;;15.58;46.53;98358.69;4977625;28;20054;-75
2021/10/14 11:02:46;;;;;;;3.22;1.42;;;;;;;15.76;47.09;98358.53;4958146;28;20167;-75
2021/10/14 11:05:12;;;;;;;2.40;1.13;;;;;;;15.72;47.88;98355.50;4962603;28;20558;-75
2021/10/14 11:07:38;;;;;;;6.50;1.60;;;;;;;15.95;48.66;98351.59;4975680;28;20058;-75
2021/10/14 11:10:05;;;;;;;4.10;1.13;;;;;;;16.13;46.91;98360.44;4964327;28;20022;-75
2021/10/14 11:12:31;;;;;;;3.35;1.23;;;;;;;16.50;45.22;98348.63;5000462;22;20042;-73
2021/10/14 11:14:57;;;;;;;2.65;1.00;;;;;;;16.98;44.65;98338.63;4978839;28;20042;-73
2021/10/14 11:17:26;;;;;;;4.20;1.50;;;;;;;17.08;43.69;98343.34;4978328;28;20089;-73
2021/10/14 11:20:06;;;;;;;2.78;1.17;;;;;;;17.22;44.09;98335.44;4955702;28;20105;-73
2021/10/14 11:22:32;;;;;;;3.10;0.98;;;;;;;17.20;43.31;98327.50;4965341;28;20026;-73
2021/10/14 11:25:00;;;;;;;2.58;1.20;;;;;;;17.31;44.47;98330.25;4955318;28;20027;-75
2021/10/14 11:27:25;;;;;;;3.38;1.10;;;;;;;17.44;43.05;98324.22;4963208;28;20034;-75
2021/10/14 11:29:52;;;;;;;2.55;1.10;;;;;;;17.19;44.49;98316.81;4966171;28;20034;-76
2021/10/14 11:32:23;;;;;;;3.75;1.23;;;;;;;17.03;44.31;98322.25;4962406;28;20065;-75
2021/10/14 11:34:48;;;;;;;1.88;1.00;;;;;;;17.15;43.23;98316.53;4961284;28;20019;-76
2021/10/14 11:37:14;;;;;;;2.25;0.85;;;;;;;16.77;44.08;98316.72;4969674;28;20039;-75
2021/10/14 11:39:41;;;;;;;4.15;1.02;;;;;;;17.15;44.65;98322.81;4959130;28;20031;-76